Time;durP1;ratioP1;P1;durP2;ratioP2;P2;SDS_P1;SDS_P2;PMS_P1;PMS_P2;Temp;Humidity;BMP_temperature;BMP_pressure;BME280_temperature;BME280_humidity;BME280_pressure;Samples;Min_cycle;Max_cycle;Signal;HPM_P1;HPM_P2
2023/12/20 00:01:15;;;;;;;;;8.00;7.00;;;;;8.01;89.59;99661.00;5098904;28;8842;-57
2023/12/20 00:03:43;;;;;;;;;12.00;10.25;;;;;8.00;90.21;99664.63;5098806;28;8813;-56
2023/12/20 00:06:11;;;;;;;;;11.25;10.75;;;;;8.01;89.56;99674.25;5099449;28;9510;-56
2023/12/20 00:08:39;;;;;;;;;12.75;10.75;;;;;7.98;89.47;99667.38;5098920;28;8975;-56
2023/12/20 00:11:07;;;;;;;;;15.25;14.50;;;;;7.98;89.67;99664.72;5098786;28;8853;-56
2023/12/20 00:13:35;;;;;;;;;8.00;7.50;;;;;7.96;89.96;99669.28;5099022;28;8821;-55
2023/12/20 00:16:03;;;;;;;;;9.50;9.00;;;;;7.94;90.00;99665.06;5099033;28;8961;-56
2023/12/20 00:18:30;;;;;;;;;3.25;3.25;;;;;7.89;89.69;99657.44;5098391;28;8838;-56
2023/12/20 00:20:58;;;;;;;;;0.75;0.75;;;;;7.85;89.91;99666.56;5098601;28;9530;-55
2023/12/20 00:23:26;;;;;;;;;6.75;6.75;;;;;7.82;89.93;99658.00;5098871;28;8915;-56
2023/12/20 00:25:55;;;;;;;;;7.50;6.50;;;;;7.80;90.08;99662.56;5098622;28;8927;-56
2023/12/20 00:28:22;;;;;;;;;10.25;8.00;;;;;7.77;89.57;99660.97;5093212;28;8829;-56
2023/12/20 00:30:50;;;;;;;;;7.00;6.00;;;;;7.76;89.89;99661.94;5077366;28;8835;-56
2023/12/20 00:33:18;;;;;;;;;6.50;6.50;;;;;7.76;89.87;99667.25;5078181;28;9578;-55
2023/12/20 00:35:47;;;;;;;;;9.50;8.25;;;;;7.75;89.82;99662.91;5078516;28;8888;-56
2023/12/20 00:38:15;;;;;;;;;4.50;4.25;;;;;7.75;90.23;99664.72;5078855;28;8890;-56
2023/12/20 00:40:42;;;;;;;;;8.00;6.50;;;;;7.75;89.92;99660.25;5078471;28;8842;-56
2023/12/20 00:43:10;;;;;;;;;9.00;6.50;;;;;7.75;89.86;99670.03;5078215;28;8849;-54
2023/12/20 00:45:39;;;;;;;;;5.75;5.50;;;;;7.75;89.97;99676.16;5078532;28;8831;-56
2023/12/20 00:48:09;;;;;;;;;7.50;5.00;;;;;7.75;90.38;99672.66;5078701;28;8850;-56
2023/12/20 00:50:37;;;;;;;;;8.00;6.50;;;;;7.75;90.21;99676.16;5077619;28;8823;-55
2023/12/20 00:53:05;;;;;;;;;4.00;1.50;;;;;7.75;90.13;99670.03;5077824;28;8865;-54
2023/12/20 00:55:33;;;;;;;;;9.25;8.00;;;;;7.76;89.98;99674.38;5078077;28;8826;-55
2023/12/20 00:58:01;;;;;;;;;6.00;6.00;;;;;7.76;89.97;99683.13;5077806;28;8915;-54
2023/12/20 01:00:29;;;;;;;;;7.50;6.00;;;;;7.76;89.88;99680.50;5057478;28;8834;-56
2023/12/20 01:02:56;;;;;;;;;3.25;2.00;;;;;7.76;89.97;99687.63;5057715;28;8957;-56
2023/12/20 01:05:24;;;;;;;;;6.50;6.50;;;;;7.76;90.27;99677.84;5057908;28;8827;-56
2023/12/20 01:07:52;;;;;;;;;8.00;6.75;;;;;7.76;89.76;99680.50;5057520;28;8845;-56
2023/12/20 01:10:20;;;;;;;;;6.00;5.00;;;;;7.78;90.07;99689.19;5057761;28;8897;-55
2023/12/20 01:12:48;;;;;;;;;9.25;8.50;;;;;7.77;90.11;99695.44;5057967;28;9538;-57
2023/12/20 01:15:16;;;;;;;;;2.50;2.25;;;;;7.76;89.97;99688.44;5070663;28;8889;-54
2023/12/20 01:17:44;;;;;;;;;6.00;5.50;;;;;7.74;89.91;99690.38;5077083;28;8839;-56
2023/12/20 01:20:12;;;;;;;;;5.00;3.50;;;;;7.73;89.80;99698.41;5076555;28;8950;-55
2023/12/20 01:22:40;;;;;;;;;4.00;3.00;;;;;7.70;89.54;99693.34;5076548;28;8851;-57
2023/12/20 01:25:08;;;;;;;;;5.00;4.00;;;;;7.65;89.84;99706.06;5076489;28;8972;-57
2023/12/20 01:27:36;;;;;;;;;1.67;1.67;;;;;7.56;89.66;99711.16;5077333;28;9462;-56
2023/12/20 01:30:04;;;;;;;;;4.00;3.50;;;;;7.49;89.99;99715.25;5093190;28;8868;-56
2023/12/20 01:32:32;;;;;;;;;2.50;1.00;;;;;7.44;90.18;99720.00;5096719;28;8831;-56
2023/12/20 01:35:00;;;;;;;;;2.50;2.50;;;;;7.38;90.19;99721.28;5096900;28;8823;-56
2023/12/20 01:37:30;;;;;;;;;11.50;11.00;;;;;7.35;90.04;99718.84;5097061;28;8823;-56
2023/12/20 01:39:58;;;;;;;;;3.00;3.00;;;;;7.32;90.49;99726.16;5097543;28;9562;-55
2023/12/20 01:42:26;;;;;;;;;6.50;6.50;;;;;7.29;90.20;99724.56;5097470;28;8844;-55
2023/12/20 01:44:54;;;;;;;;;1.00;1.00;;;;;7.29;90.33;99729.84;5097410;28;8812;-56
2023/12/20 01:47:22;;;;;;;;;0.75;0.50;;;;;7.30;90.06;99733.34;5097219;28;8868;-56
2023/12/20 01:49:50;;;;;;;;;2.00;1.50;;;;;7.31;90.59;99727.09;5097333;28;8858;-54
2023/12/20 01:52:18;;;;;;;;;2.33;2.33;;;;;7.31;90.31;99735.06;5097389;28;8904;-55
2023/12/20 01:54:46;;;;;;;;;0.50;0.50;;;;;7.31;90.71;99732.41;5096196;28;8952;-57
2023/12/20 01:57:14;;;;;;;;;3.00;3.00;;;;;7.31;90.23;99727.09;5096530;28;8824;-54
2023/12/20 01:59:42;;;;;;;;;3.00;3.00;;;;;7.31;89.88;99716.50;5094939;28;8859;-56
2023/12/20 02:02:12;;;;;;;;;3.00;3.00;;;;;7.31;90.00;99721.81;5094981;28;8837;-54
2023/12/20 02:04:40;;;;;;;;;4.00;4.00;;;;;7.29;90.25;99724.56;5094760;28;8849;-55
2023/12/20 02:07:08;;;;;;;;;1.00;1.00;;;;;7.28;90.30;99724.69;5095676;28;8944;-56
2023/12/20 02:09:37;;;;;;;;;3.00;3.00;;;;;7.28;90.24;99722.03;5096016;28;8848;-56
2023/12/20 02:12:05;;;;;;;;;4.00;3.25;;;;;7.30;90.10;99730.72;5096210;28;9011;-56
2023/12/20 02:14:33;;;;;;;;;1.00;1.00;;;;;7.30;89.87;99733.34;5096944;28;8830;-56
2023/12/20 02:17:01;;;;;;;;;1.50;1.50;;;;;7.30;90.07;99730.72;5097419;28;8836;-56
2023/12/20 02:19:29;;;;;;;;;5.00;3.75;;;;;7.29;89.98;99726.38;5096791;28;9570;-54
2023/12/20 02:21:57;;;;;;;;;5.50;5.50;;;;;7.28;90.12;99722.03;5096337;28;8884;-56
2023/12/20 02:24:24;;;;;;;;;3.00;3.00;;;;;7.28;89.48;99724.69;5096380;28;9489;-57
2023/12/20 02:26:52;;;;;;;;;3.00;2.50;;;;;7.26;89.77;99723.91;5097037;28;8848;-56
2023/12/20 02:29:19;;;;;;;;;6.75;6.75;;;;;7.23;89.78;99711.78;5086230;28;8814;-54
2023/12/20 02:31:49;;;;;;;;;1.50;1.50;;;;;7.21;90.07;99723.41;5076057;28;8818;-56
2023/12/20 02:34:17;;;;;;;;;2.00;1.00;;;;;7.20;89.94;99721.72;5075817;28;8814;-56
2023/12/20 02:36:45;;;;;;;;;3.75;3.75;;;;;7.18;89.97;99715.66;5076024;28;8910;-56
2023/12/20 02:39:14;;;;;;;;;6.25;5.00;;;;;7.14;89.67;99727.44;5075851;28;8945;-54
2023/12/20 02:41:41;;;;;;;;;2.50;2.50;;;;;7.11;89.99;99728.50;5076361;28;8853;-56
2023/12/20 02:44:09;;;;;;;;;2.50;2.50;;;;;7.09;89.78;99727.75;5075970;28;8944;-55
2023/12/20 02:46:37;;;;;;;;;1.00;1.00;;;;;7.05;89.95;99720.13;5075895;28;9568;-56
2023/12/20 02:49:04;;;;;;;;;1.50;1.00;;;;;6.98;89.74;99719.69;5075977;28;8822;-55
2023/12/20 02:51:32;;;;;;;;;3.50;2.50;;;;;6.91;90.24;99733.47;5076252;28;8825;-54
2023/12/20 02:54:00;;;;;;;;;3.00;3.00;;;;;6.81;90.07;99722.66;5076105;28;8880;-54
2023/12/20 02:56:28;;;;;;;;;2.00;1.00;;;;;6.75;90.34;99719.59;5076161;28;8959;-57
2023/12/20 02:58:55;;;;;;;;;2.50;1.00;;;;;6.68;90.23;99710.38;5076363;28;8814;-56
2023/12/20 03:01:24;;;;;;;;;0.50;0.50;;;;;6.62;90.31;99711.63;5090671;28;8842;-54
2023/12/20 03:03:52;;;;;;;;;0.00;0.00;;;;;6.63;90.29;99720.41;5095751;28;8830;-56
2023/12/20 03:06:20;;;;;;;;;2.00;1.00;;;;;6.66;90.51;99723.69;5095646;28;8850;-56
2023/12/20 03:08:47;;;;;;;;;1.50;1.00;;;;;6.69;90.28;99712.88;5096339;28;8972;-55
2023/12/20 03:11:15;;;;;;;;;1.00;1.00;;;;;6.72;90.40;99715.34;5094191;28;8834;-56
2023/12/20 03:13:43;;;;;;;;;1.00;1.00;;;;;6.75;90.01;99711.66;5086939;28;8880;-55
2023/12/20 03:16:11;;;;;;;;;1.00;1.00;;;;;6.78;90.49;99706.13;5095876;28;8825;-55
2023/12/20 03:18:39;;;;;;;;;2.00;1.00;;;;;6.82;90.17;99707.63;5095848;28;8840;-56
2023/12/20 03:21:06;;;;;;;;;4.00;4.00;;;;;6.85;89.68;99715.34;5095746;28;8868;-56
2023/12/20 03:23:34;;;;;;;;;3.75;3.75;;;;;6.90;90.01;99710.59;5095761;28;8829;-56
2023/12/20 03:26:02;;;;;;;;;6.00;6.00;;;;;6.92;90.25;99708.69;5095988;28;8971;-54
2023/12/20 03:28:30;;;;;;;;;3.50;3.50;;;;;6.93;89.70;99710.38;5095399;28;8814;-55
2023/12/20 03:30:57;;;;;;;;;4.00;3.50;;;;;6.94;89.79;99712.06;5095778;28;8849;-54
2023/12/20 03:33:25;;;;;;;;;4.75;4.50;;;;;6.93;89.95;99713.03;5095938;28;8826;-56
2023/12/20 03:35:53;;;;;;;;;3.00;3.00;;;;;6.93;89.87;99721.81;5095869;28;8946;-56
2023/12/20 03:38:21;;;;;;;;;5.00;3.50;;;;;6.94;89.63;99718.22;5095331;28;8834;-55
2023/12/20 03:40:49;;;;;;;;;4.00;3.25;;;;;6.95;89.64;99722.56;5095661;28;8825;-55
2023/12/20 03:43:17;;;;;;;;;1.00;1.00;;;;;6.95;89.72;99713.75;5095899;28;9006;-56
2023/12/20 03:45:45;;;;;;;;;3.00;2.50;;;;;6.93;89.50;99711.25;5095887;28;8812;-55
2023/12/20 03:48:13;;;;;;;;;6.25;6.00;;;;;6.93;89.81;99721.81;5095469;28;8907;-54
2023/12/20 03:50:41;;;;;;;;;2.00;2.00;;;;;6.92;89.75;99720.13;5095807;28;8822;-56
2023/12/20 03:53:08;;;;;;;;;3.25;2.00;;;;;6.92;89.85;99724.56;5095580;28;8826;-56
2023/12/20 03:55:36;;;;;;;;;3.00;2.50;;;;;6.93;89.67;99721.81;5094932;28;8826;-55
2023/12/20 03:58:04;;;;;;;;;3.50;3.50;;;;;6.92;89.47;99719.28;5094806;28;8953;-57
2023/12/20 04:00:32;;;;;;;;;2.50;2.50;;;;;6.90;89.69;99726.47;5094804;28;8988;-57
2023/12/20 04:03:00;;;;;;;;;3.50;3.50;;;;;6.89;89.74;99725.63;5095623;28;8944;-57
2023/12/20 04:05:28;;;;;;;;;2.00;2.00;;;;;6.87;89.38;99716.09;5095670;28;8869;-57
2023/12/20 04:07:56;;;;;;;;;3.50;3.50;;;;;6.86;89.64;99719.69;5095356;28;8829;-56
2023/12/20 04:10:24;;;;;;;;;2.50;2.50;;;;;6.85;89.40;99724.16;5095246;28;8825;-57
2023/12/20 04:12:51;;;;;;;;;4.00;4.00;;;;;6.82;89.24;99731.44;5095772;28;8930;-57
2023/12/20 04:15:19;;;;;;;;;3.00;3.00;;;;;6.79;89.42;99729.00;5095428;28;8833;-56
2023/12/20 04:17:47;;;;;;;;;0.50;0.50;;;;;6.78;89.59;99722.00;5097134;28;8849;-57
2023/12/20 04:20:15;;;;;;;;;1.50;1.50;;;;;6.77;89.45;99721.19;5099146;28;8868;-56
2023/12/20 04:22:43;;;;;;;;;3.25;1.50;;;;;6.73;89.52;99717.03;5098882;28;8825;-56
2023/12/20 04:25:11;;;;;;;;;2.50;1.50;;;;;6.71;89.53;99715.44;5098702;28;8818;-56
2023/12/20 04:27:39;;;;;;;;;1.00;1.00;;;;;6.70;88.90;99717.25;5094440;28;8870;-57
2023/12/20 04:30:09;;;;;;;;;7.00;4.75;;;;;6.68;89.76;99713.84;5078454;28;8830;-56
2023/12/20 04:32:36;;;;;;;;;3.50;3.25;;;;;6.67;89.97;99708.66;5078583;28;8816;-56
2023/12/20 04:35:04;;;;;;;;;1.00;1.00;;;;;6.66;89.75;99714.91;5078300;28;8854;-56
2023/12/20 04:37:32;;;;;;;;;0.00;0.00;;;;;6.65;89.73;99722.00;5078497;28;8832;-54
2023/12/20 04:40:01;;;;;;;;;4.00;4.00;;;;;6.64;89.61;99722.94;5078028;28;8859;-55
2023/12/20 04:42:29;;;;;;;;;4.00;4.00;;;;;6.63;89.73;99708.03;5078168;28;8832;-54
2023/12/20 04:44:57;;;;;;;;;6.50;3.25;;;;;6.66;89.46;99713.09;5078159;28;8842;-55
2023/12/20 04:47:25;;;;;;;;;4.00;4.00;;;;;6.67;89.41;99703.38;5076979;28;8954;-57
2023/12/20 04:49:52;;;;;;;;;3.25;2.00;;;;;6.66;89.61;99717.56;5077144;28;8852;-54
2023/12/20 04:52:20;;;;;;;;;6.00;6.00;;;;;6.65;89.05;99713.19;5077149;28;8831;-56
2023/12/20 04:54:49;;;;;;;;;4.00;3.25;;;;;6.62;89.00;99713.41;5077335;28;8846;-56
2023/12/20 04:57:17;;;;;;;;;5.50;3.75;;;;;6.62;89.47;99716.91;5077521;28;8901;-56
2023/12/20 04:59:45;;;;;;;;;6.00;3.75;;;;;6.62;89.59;99722.22;5089551;28;8844;-57
2023/12/20 05:02:12;;;;;;;;;3.00;3.00;;;;;6.62;89.41;99719.56;5080145;28;8866;-56
2023/12/20 05:04:39;;;;;;;;;5.00;3.75;;;;;6.63;89.50;99710.69;5078161;28;8816;-54
2023/12/20 05:07:08;;;;;;;;;4.50;4.00;;;;;6.66;89.51;99717.56;5081535;28;8890;-56
2023/12/20 05:09:36;;;;;;;;;5.00;4.50;;;;;6.67;89.69;99719.25;5097681;28;8798;-55
2023/12/20 05:12:03;;;;;;;;;5.50;4.50;;;;;6.66;89.46;99720.22;5097892;28;9540;-57
2023/12/20 05:14:31;;;;;;;;;6.00;6.00;;;;;6.67;88.98;99716.59;5096950;28;8798;-56
2023/12/20 05:16:59;;;;;;;;;8.50;7.00;;;;;6.66;89.27;99706.97;5097036;28;8936;-56
2023/12/20 05:19:27;;;;;;;;;5.50;5.50;;;;;6.68;89.50;99715.66;5097000;28;8842;-56
2023/12/20 05:21:55;;;;;;;;;3.75;3.75;;;;;6.69;89.21;99715.53;5097131;28;8825;-56
2023/12/20 05:24:23;;;;;;;;;4.50;4.00;;;;;6.69;89.33;99715.53;5096450;28;8810;-56
2023/12/20 05:26:51;;;;;;;;;3.00;3.00;;;;;6.70;89.04;99729.63;5097556;28;8838;-55
2023/12/20 05:29:20;;;;;;;;;6.50;4.00;;;;;6.70;88.81;99727.84;5095954;28;8822;-57
2023/12/20 05:31:48;;;;;;;;;3.50;3.00;;;;;6.70;89.08;99717.25;5097232;28;8822;-56
2023/12/20 05:34:16;;;;;;;;;7.50;6.00;;;;;6.70;89.15;99721.69;5097102;28;8922;-55
2023/12/20 05:36:44;;;;;;;;;2.50;2.50;;;;;6.69;89.11;99722.63;5097635;28;9488;-56
2023/12/20 05:39:12;;;;;;;;;4.00;3.75;;;;;6.65;88.99;99721.13;5097106;28;8829;-56
2023/12/20 05:41:40;;;;;;;;;5.00;4.50;;;;;6.63;89.53;99725.69;5097008;28;8879;-57
2023/12/20 05:44:08;;;;;;;;;4.00;4.00;;;;;6.62;88.86;99727.50;5097081;28;8860;-56
2023/12/20 05:46:36;;;;;;;;;8.75;8.50;;;;;6.63;89.18;99720.41;5096806;28;8822;-54
2023/12/20 05:49:04;;;;;;;;;5.50;5.50;;;;;6.64;89.28;99730.03;5097024;28;8869;-56
2023/12/20 05:51:32;;;;;;;;;7.50;6.00;;;;;6.64;88.98;99714.16;5097086;28;8822;-56
2023/12/20 05:54:00;;;;;;;;;4.75;4.50;;;;;6.66;89.19;99723.69;5096927;28;8841;-57
2023/12/20 05:56:28;;;;;;;;;6.25;4.50;;;;;6.67;89.01;99719.25;5096272;28;8976;-56
2023/12/20 05:58:56;;;;;;;;;6.75;6.00;;;;;6.65;89.21;99718.47;5096488;28;8833;-56
2023/12/20 06:01:23;;;;;;;;;7.00;6.00;;;;;6.63;89.05;99713.31;5096304;28;8843;-55
2023/12/20 06:03:51;;;;;;;;;0.00;0.00;;;;;6.63;89.07;99717.75;5096298;28;9533;-55
2023/12/20 06:06:19;;;;;;;;;9.75;6.25;;;;;6.65;89.09;99721.13;5096276;28;8858;-57
2023/12/20 06:08:47;;;;;;;;;4.75;3.75;;;;;6.66;89.16;99717.56;5095503;28;8864;-57
2023/12/20 06:11:14;;;;;;;;;3.75;3.75;;;;;6.65;89.12;99722.00;5095286;28;8853;-56
2023/12/20 06:13:42;;;;;;;;;5.00;4.00;;;;;6.60;89.11;99723.25;5094824;28;8821;-56
2023/12/20 06:16:10;;;;;;;;;3.25;3.25;;;;;6.54;89.12;99713.09;5095048;28;8834;-55
2023/12/20 06:18:38;;;;;;;;;6.00;5.50;;;;;6.47;89.38;99715.31;5095181;28;8972;-55
2023/12/20 06:21:12;;;;;;;;;4.75;4.00;;;;;6.47;89.41;99714.44;5095149;28;9491;-56
2023/12/20 06:23:40;;;;;;;;;3.50;3.50;;;;;6.45;89.27;99719.81;5094744;28;8857;-55
2023/12/20 06:26:08;;;;;;;;;5.00;4.00;;;;;6.46;88.86;99715.38;5094388;28;8840;-56
2023/12/20 06:28:35;;;;;;;;;3.25;3.25;;;;;6.47;89.36;99703.88;5094613;28;8818;-56
2023/12/20 06:31:07;;;;;;;;;5.00;3.50;;;;;6.49;89.47;99704.59;5094577;28;8822;-55
2023/12/20 06:33:34;;;;;;;;;4.00;4.00;;;;;6.49;89.14;99713.38;5094957;28;8968;-56
2023/12/20 06:36:02;;;;;;;;;7.00;6.00;;;;;6.49;89.45;99716.03;5094697;28;8961;-55
2023/12/20 06:38:30;;;;;;;;;5.00;4.50;;;;;6.53;89.20;99716.69;5095429;28;8953;-57
2023/12/20 06:40:58;;;;;;;;;6.50;4.00;;;;;6.54;89.01;99713.91;5094636;28;8947;-55
2023/12/20 06:43:26;;;;;;;;;6.00;3.50;;;;;6.57;88.97;99715.50;5095438;28;8825;-55
2023/12/20 06:46:13;;;;;;;;;5.00;4.00;;;;;6.58;88.77;99715.41;5094837;28;8837;-56
2023/12/20 06:48:41;;;;;;;;;6.00;6.00;;;;;6.60;89.09;99710.84;5095070;28;8852;-56
2023/12/20 06:51:09;;;;;;;;;3.00;3.00;;;;;6.61;89.23;99714.38;5095003;28;8907;-55
2023/12/20 06:53:37;;;;;;;;;3.75;3.25;;;;;6.61;88.65;99707.25;5094762;28;8833;-54
2023/12/20 06:56:05;;;;;;;;;5.25;5.25;;;;;6.62;88.54;99705.47;5095123;28;8822;-56
2023/12/20 06:58:32;;;;;;;;;4.00;3.50;;;;;6.63;88.86;99725.69;5094448;28;8860;-55
2023/12/20 07:01:00;;;;;;;;;7.00;6.25;;;;;6.64;89.13;99711.50;5094057;28;8838;-55
2023/12/20 07:03:28;;;;;;;;;6.00;4.50;;;;;6.65;88.75;99710.56;5093139;28;8803;-55
2023/12/20 07:05:56;;;;;;;;;9.25;6.50;;;;;6.66;88.85;99709.63;5093283;28;8829;-57
2023/12/20 07:08:24;;;;;;;;;7.50;4.00;;;;;6.63;88.66;99708.03;5093899;28;8836;-56
2023/12/20 07:10:52;;;;;;;;;5.00;3.50;;;;;6.65;88.66;99721.13;5093624;28;8854;-55
2023/12/20 07:13:20;;;;;;;;;3.75;2.50;;;;;6.66;88.70;99715.75;5094033;28;9550;-57
2023/12/20 07:15:48;;;;;;;;;4.00;3.00;;;;;6.67;88.56;99717.44;5095081;28;8821;-55
2023/12/20 07:18:16;;;;;;;;;8.60;7.60;;;;;6.68;88.73;99715.66;5094603;28;8841;-57
2023/12/20 07:20:43;;;;;;;;;6.00;5.00;;;;;6.68;88.98;99718.28;5094808;28;8916;-55
2023/12/20 07:23:11;;;;;;;;;6.00;5.50;;;;;6.69;88.73;99714.69;5094559;28;8943;-56
2023/12/20 07:25:39;;;;;;;;;5.50;3.75;;;;;6.70;88.06;99714.59;5094899;28;8837;-55
2023/12/20 07:28:07;;;;;;;;;3.00;1.00;;;;;6.71;88.05;99716.28;5094585;28;8947;-56
2023/12/20 07:30:35;;;;;;;;;5.00;3.00;;;;;6.71;88.20;99721.59;5093788;28;8853;-56
2023/12/20 07:33:03;;;;;;;;;4.50;4.50;;;;;6.71;87.94;99726.00;5093782;28;8829;-57
2023/12/20 07:35:31;;;;;;;;;7.50;6.25;;;;;6.73;88.72;99734.69;5094573;28;9606;-56
2023/12/20 07:37:59;;;;;;;;;2.00;2.00;;;;;6.72;88.50;99723.28;5093764;28;8829;-57
2023/12/20 07:40:27;;;;;;;;;3.00;1.00;;;;;6.73;88.39;99724.97;5094106;28;8971;-55
2023/12/20 07:42:55;;;;;;;;;3.00;3.00;;;;;6.74;88.13;99731.94;5094285;28;8857;-56
2023/12/20 07:45:23;;;;;;;;;3.75;3.75;;;;;6.75;88.26;99728.34;5094406;28;8841;-55
2023/12/20 07:47:51;;;;;;;;;1.00;1.00;;;;;6.75;87.94;99731.00;5094575;28;8967;-57
2023/12/20 07:50:19;;;;;;;;;5.00;5.00;;;;;6.76;88.39;99731.84;5094714;28;8847;-55
2023/12/20 07:52:47;;;;;;;;;3.25;3.00;;;;;6.76;88.50;99724.75;5095773;28;8841;-55
2023/12/20 07:55:15;;;;;;;;;0.50;0.50;;;;;6.77;88.09;99728.25;5098048;28;8847;-57
2023/12/20 07:57:43;;;;;;;;;3.00;2.50;;;;;6.77;88.30;99726.47;5097999;28;8837;-56
2023/12/20 08:00:11;;;;;;;;;2.75;2.75;;;;;6.78;88.27;99733.44;5098049;28;8921;-56
2023/12/20 08:02:39;;;;;;;;;6.00;5.00;;;;;6.77;87.54;99729.13;5097938;28;8915;-57
2023/12/20 08:05:06;;;;;;;;;3.25;3.25;;;;;6.79;87.83;99732.50;5097369;28;8870;-57
2023/12/20 08:07:35;;;;;;;;;4.00;4.00;;;;;6.81;88.15;99732.41;5097790;28;8857;-58
2023/12/20 08:10:02;;;;;;;;;4.25;4.25;;;;;6.79;87.84;99724.56;5097867;28;9482;-57
2023/12/20 08:12:31;;;;;;;;;4.00;3.50;;;;;6.79;87.92;99723.69;5097726;28;8963;-57
2023/12/20 08:14:59;;;;;;;;;3.25;3.00;;;;;6.78;88.17;99725.50;5097899;28;8838;-57
2023/12/20 08:17:27;;;;;;;;;4.00;3.75;;;;;6.78;87.90;99719.38;5097969;28;8918;-56
2023/12/20 08:19:55;;;;;;;;;4.00;4.00;;;;;6.79;88.28;99718.41;5098342;28;8841;-58
2023/12/20 08:22:23;;;;;;;;;4.00;3.75;;;;;6.79;87.79;99726.34;5097816;28;8814;-57
2023/12/20 08:24:50;;;;;;;;;1.00;1.00;;;;;6.81;87.60;99720.00;5097974;28;8814;-58
2023/12/20 08:27:19;;;;;;;;;3.00;2.00;;;;;6.83;87.92;99725.19;5097996;28;8869;-57
2023/12/20 08:29:47;;;;;;;;;2.50;1.00;;;;;6.85;87.59;99721.50;5097155;28;8830;-56
2023/12/20 08:32:15;;;;;;;;;2.00;1.00;;;;;6.86;87.55;99730.28;5097416;28;8822;-56
2023/12/20 08:34:43;;;;;;;;;3.50;3.00;;;;;6.88;87.66;99721.28;5097387;28;8831;-57
2023/12/20 08:37:11;;;;;;;;;3.00;3.00;;;;;6.90;87.22;99726.47;5097513;28;8830;-56
2023/12/20 08:39:39;;;;;;;;;0.75;0.75;;;;;6.90;87.67;99716.72;5097454;28;8838;-55
2023/12/20 08:42:11;;;;;;;;;5.00;5.00;;;;;6.91;87.71;99721.06;5097030;28;8858;-55
2023/12/20 08:44:39;;;;;;;;;3.00;3.00;;;;;6.93;87.61;99713.03;5097216;28;8829;-56
2023/12/20 08:47:07;;;;;;;;;3.00;3.00;;;;;6.93;87.53;99713.03;5094793;28;8853;-56
2023/12/20 08:49:36;;;;;;;;;3.50;3.25;;;;;6.95;87.44;99719.06;5076304;28;9606;-56
2023/12/20 08:52:05;;;;;;;;;4.00;4.00;;;;;6.95;87.32;99716.41;5076589;28;8836;-56
2023/12/20 08:54:34;;;;;;;;;5.50;5.00;;;;;6.95;87.44;99719.91;5076029;28;8879;-56
2023/12/20 08:57:02;;;;;;;;;3.25;2.50;;;;;6.97;87.58;99715.34;5076467;28;8937;-55
2023/12/20 08:59:29;;;;;;;;;3.75;3.00;;;;;6.99;87.03;99715.25;5076039;28;8832;-56
2023/12/20 09:01:58;;;;;;;;;5.50;5.00;;;;;7.02;87.11;99717.69;5076119;28;8840;-55
2023/12/20 09:04:26;;;;;;;;;3.50;3.25;;;;;7.04;87.34;99713.16;5075923;28;8828;-55
2023/12/20 09:06:54;;;;;;;;;2.00;1.00;;;;;7.06;86.92;99711.25;5076423;28;8962;-57
2023/12/20 09:09:22;;;;;;;;;2.50;1.00;;;;;7.08;87.09;99710.19;5076432;28;8874;-56
2023/12/20 09:11:51;;;;;;;;;3.50;3.00;;;;;7.11;87.30;99709.09;5076724;28;8855;-56
2023/12/20 09:14:19;;;;;;;;;1.00;1.00;;;;;7.12;87.06;99721.41;5081512;28;8929;-56
2023/12/20 09:16:47;;;;;;;;;4.50;4.50;;;;;7.14;87.07;99708.91;5095574;28;8830;-57
2023/12/20 09:19:15;;;;;;;;;4.50;3.25;;;;;7.15;86.63;99706.16;5094921;28;8927;-57
2023/12/20 09:21:42;;;;;;;;;9.00;6.00;;;;;7.16;86.71;99705.19;5095031;28;8834;-57
2023/12/20 09:24:11;;;;;;;;;0.00;0.00;;;;;7.17;86.80;99712.19;5094929;28;8836;-57
2023/12/20 09:26:39;;;;;;;;;5.50;4.00;;;;;7.19;86.84;99712.09;5095205;28;8837;-57
2023/12/20 09:29:09;;;;;;;;;7.50;6.50;;;;;7.19;86.98;99707.63;5095384;28;9566;-57
2023/12/20 09:31:37;;;;;;;;;1.75;1.50;;;;;7.20;86.83;99703.19;5095608;28;8849;-57
2023/12/20 09:34:05;;;;;;;;;6.00;5.50;;;;;7.20;86.62;99701.38;5095488;28;8833;-56
2023/12/20 09:36:36;;;;;;;;;5.00;4.00;;;;;7.21;86.75;99689.81;5094370;28;8833;-57
2023/12/20 09:39:03;;;;;;;;;5.00;4.00;;;;;7.22;86.53;99680.94;5094843;28;8914;-57
2023/12/20 09:41:31;;;;;;;;;3.50;3.25;;;;;7.23;86.50;99687.94;5095548;28;8853;-56
2023/12/20 09:43:59;;;;;;;;;5.50;5.50;;;;;7.24;86.46;99694.06;5095288;28;9726;-56
2023/12/20 09:46:27;;;;;;;;;5.50;5.00;;;;;7.24;86.89;99683.47;5094972;28;9499;-57
2023/12/20 09:48:55;;;;;;;;;5.00;5.00;;;;;7.25;86.50;99691.31;5094444;28;9529;-57
2023/12/20 09:51:23;;;;;;;;;5.50;4.00;;;;;7.26;86.66;99681.56;5095408;28;9580;-57
2023/12/20 09:53:51;;;;;;;;;3.00;3.00;;;;;7.27;86.21;99685.91;5094770;28;8888;-55
2023/12/20 09:56:19;;;;;;;;;3.25;3.25;;;;;7.28;86.07;99679.66;5095242;28;8834;-57
2023/12/20 09:58:48;;;;;;;;;4.00;3.00;;;;;7.30;86.17;99681.25;5094275;28;8834;-57
2023/12/20 10:01:16;;;;;;;;;3.25;3.25;;;;;7.30;86.37;99683.91;5093672;28;8830;-55
2023/12/20 10:03:44;;;;;;;;;3.25;3.25;;;;;7.31;86.44;99668.84;5093949;28;8848;-57
2023/12/20 10:06:12;;;;;;;;;3.25;3.00;;;;;7.31;86.27;99682.09;5094415;28;8845;-56
2023/12/20 10:08:40;;;;;;;;;3.25;3.25;;;;;7.32;86.31;99686.44;5093870;28;9515;-56
2023/12/20 10:11:08;;;;;;;;;3.50;3.00;;;;;7.33;86.02;99680.16;5095327;28;8858;-56
2023/12/20 10:13:36;;;;;;;;;1.00;1.00;;;;;7.35;85.80;99680.94;5095369;28;8818;-55
2023/12/20 10:16:04;;;;;;;;;3.00;3.00;;;;;7.38;86.13;99681.56;5094874;28;8861;-55
2023/12/20 10:18:33;;;;;;;;;1.00;1.00;;;;;7.39;86.18;99685.91;5095468;28;8858;-56
2023/12/20 10:21:06;;;;;;;;;3.33;1.67;;;;;7.41;85.88;99691.06;5094448;28;8825;-57
2023/12/20 10:23:34;;;;;;;;;3.00;2.00;;;;;7.43;85.82;99678.59;5094260;28;8829;-57
2023/12/20 10:26:02;;;;;;;;;3.50;2.50;;;;;7.45;85.87;99674.00;5093903;28;8993;-57
2023/12/20 10:28:31;;;;;;;;;3.00;3.00;;;;;7.47;85.67;99669.44;5094307;28;8832;-57
2023/12/20 10:30:59;;;;;;;;;3.75;3.00;;;;;7.48;85.83;99660.53;5094041;28;9534;-56
2023/12/20 10:33:27;;;;;;;;;2.50;2.50;;;;;7.51;85.82;99658.53;5094978;28;8818;-56
2023/12/20 10:35:55;;;;;;;;;2.00;1.50;;;;;7.52;85.90;99654.94;5094725;28;8854;-57
2023/12/20 10:38:23;;;;;;;;;3.00;1.00;;;;;7.53;85.37;99639.88;5094831;28;8952;-54
2023/12/20 10:40:51;;;;;;;;;3.00;3.00;;;;;7.55;85.53;99637.94;5094157;28;9024;-57
2023/12/20 10:43:19;;;;;;;;;1.50;1.50;;;;;7.58;86.07;99624.50;5094291;28;8829;-56
2023/12/20 10:45:47;;;;;;;;;1.00;1.00;;;;;7.60;85.43;99643.78;5094356;28;8890;-56
2023/12/20 10:48:15;;;;;;;;;3.00;3.00;;;;;7.59;85.49;99647.38;5093619;28;8960;-57
2023/12/20 10:50:43;;;;;;;;;3.00;3.00;;;;;7.58;85.52;99640.41;5093473;28;9523;-57
2023/12/20 10:53:12;;;;;;;;;2.75;2.25;;;;;7.55;85.00;99646.75;5094286;28;8822;-57
2023/12/20 10:55:39;;;;;;;;;4.00;3.00;;;;;7.55;85.38;99651.19;5094777;28;8857;-57
2023/12/20 10:58:07;;;;;;;;;3.50;3.00;;;;;7.54;85.37;99647.72;5094413;28;8838;-55
2023/12/20 11:00:36;;;;;;;;;4.00;4.00;;;;;7.52;85.39;99651.44;5093705;28;8833;-57
2023/12/20 11:03:04;;;;;;;;;3.50;3.50;;;;;7.53;85.71;99627.50;5093539;28;8931;-56
2023/12/20 11:05:33;;;;;;;;;3.50;3.00;;;;;7.59;85.36;99636.78;5092917;28;8834;-54
2023/12/20 11:08:02;;;;;;;;;4.50;3.75;;;;;7.60;85.12;99647.28;5093168;28;8838;-57
2023/12/20 11:10:30;;;;;;;;;4.00;3.00;;;;;7.60;85.27;99638.47;5091238;28;8845;-55
2023/12/20 11:12:58;;;;;;;;;3.00;1.50;;;;;7.60;85.23;99644.63;5092616;28;8822;-56
2023/12/20 11:15:27;;;;;;;;;3.25;3.25;;;;;7.62;85.53;99641.84;5093260;28;8937;-56
2023/12/20 11:17:55;;;;;;;;;3.50;3.25;;;;;7.62;85.36;99624.16;5092629;28;8858;-56
2023/12/20 11:20:23;;;;;;;;;3.75;3.75;;;;;7.65;85.12;99644.31;5093448;28;8956;-58
2023/12/20 11:22:52;;;;;;;;;4.25;3.75;;;;;7.60;85.39;99643.78;5092752;28;8857;-55
2023/12/20 11:25:20;;;;;;;;;4.00;4.00;;;;;7.52;85.58;99652.28;5093670;28;9614;-55
2023/12/20 11:27:48;;;;;;;;;3.00;3.00;;;;;7.39;85.50;99645.31;5095620;28;8822;-56
2023/12/20 11:30:20;;;;;;;;;4.00;3.00;;;;;7.30;85.68;99657.44;5097434;28;8841;-57
2023/12/20 11:32:48;;;;;;;;;4.00;3.50;;;;;7.26;86.18;99644.47;5098312;28;8849;-55
2023/12/20 11:35:16;;;;;;;;;2.50;2.00;;;;;7.25;85.90;99642.78;5096943;28;8826;-57
2023/12/20 11:37:46;;;;;;;;;6.50;4.00;;;;;7.26;85.83;99650.63;5097526;28;8976;-55
2023/12/20 11:40:15;;;;;;;;;5.00;4.00;;;;;7.28;86.12;99632.00;5098150;28;8830;-57
2023/12/20 11:42:43;;;;;;;;;3.75;3.75;;;;;7.30;85.76;99641.53;5098533;28;8858;-57
2023/12/20 11:45:11;;;;;;;;;6.75;6.50;;;;;7.32;85.53;99625.50;5097343;28;8833;-57
2023/12/20 11:47:39;;;;;;;;;4.00;4.00;;;;;7.34;85.88;99623.63;5098423;28;8854;-58
2023/12/20 11:50:07;;;;;;;;;7.25;5.75;;;;;7.34;85.98;99632.41;5097337;28;8841;-58
2023/12/20 11:52:35;;;;;;;;;4.00;3.50;;;;;7.35;85.69;99615.53;5098185;28;8844;-58